Nules, Spain
Current Conditions -  °F | °C
As of 4:00 PM on Saturday 22 Nov 2014 (Local Time) from LEBT Reporting Station
Overcast Overcast  
Wind Chill: 19°   Ceiling: 2400
Heat Index: 19°   Visibility: 6mi
Dew Point: 14°   Wind: 2mph
Humidity: 73%   Direction: NA
Pressure: 30"   Gusts: NA
Location:  39.85°N, 0.16°W
Report Text: LEBT 221500Z AUTO VRB02KT 9999 // OVC024/// 19/14 Q1016
Loading
Personal Weather Stations






























Interactive Weather Map New forecast layout! Learn more

10-Day Weather Forecast

Advertisements
Track Severe Weather on mobile